createdAt,value
2023-05-14T00:00:12.330Z,56.30
2023-05-14T00:03:16.453Z,56.34
2023-05-14T00:06:20.591Z,56.28
2023-05-14T00:09:24.426Z,55.74
2023-05-14T00:12:28.834Z,56.04
2023-05-14T00:15:34.639Z,55.85
2023-05-14T00:18:38.789Z,55.78
2023-05-14T00:21:42.898Z,56.12
2023-05-14T00:24:46.608Z,56.20
2023-05-14T00:27:50.653Z,56.47
2023-05-14T00:30:56.222Z,56.50
2023-05-14T00:34:00.021Z,56.40
2023-05-14T00:37:03.872Z,56.11
2023-05-14T00:40:12.002Z,55.92
2023-05-14T00:43:16.251Z,56.36
2023-05-14T00:46:21.818Z,56.53
2023-05-14T00:49:26.387Z,56.40
2023-05-14T00:52:30.734Z,55.85
2023-05-14T00:55:34.774Z,56.30
2023-05-14T00:58:38.760Z,56.79
2023-05-14T01:01:44.198Z,57.26
2023-05-14T01:04:48.137Z,57.43
2023-05-14T01:08:04.753Z,58.04
2023-05-14T01:11:15.512Z,57.69
2023-05-14T01:14:23.590Z,57.19
2023-05-14T01:17:31.088Z,57.83
2023-05-14T01:20:35.012Z,58.30
2023-05-14T01:23:40.244Z,58.56
2023-05-14T01:26:44.204Z,58.15
2023-05-14T01:29:54.955Z,58.03
2023-05-14T01:33:03.192Z,58.37
2023-05-14T01:36:08.001Z,57.67
2023-05-14T01:39:15.871Z,56.99
2023-05-14T01:42:19.902Z,57.18
2023-05-14T01:45:24.204Z,57.49
2023-05-14T01:48:30.143Z,57.63
2023-05-14T01:51:34.086Z,57.75
2023-05-14T01:54:40.917Z,57.62
2023-05-14T01:57:44.736Z,57.80
2023-05-14T02:00:48.502Z,58.98
2023-05-14T02:03:52.468Z,58.89
2023-05-14T02:06:56.485Z,59.42
2023-05-14T02:10:02.949Z,59.87
2023-05-14T02:13:06.864Z,59.11
2023-05-14T02:16:11.134Z,59.57
2023-05-14T02:19:15.147Z,59.21
2023-05-14T02:22:19.188Z,59.29
2023-05-14T02:25:24.631Z,59.50
2023-05-14T02:28:28.582Z,59.55
2023-05-14T02:31:32.411Z,59.34
2023-05-14T02:34:36.221Z,58.95
2023-05-14T02:37:40.112Z,58.81
2023-05-14T02:40:45.304Z,58.61
2023-05-14T02:43:49.062Z,59.18
2023-05-14T02:46:53.494Z,58.66
2023-05-14T02:49:57.250Z,59.06
2023-05-14T02:53:01.949Z,58.40
2023-05-14T02:56:08.287Z,58.39
2023-05-14T02:59:11.987Z,57.70
2023-05-14T03:02:16.483Z,57.56
2023-05-14T03:05:20.981Z,58.37
2023-05-14T03:08:25.127Z,58.31
2023-05-14T03:11:30.542Z,59.05
2023-05-14T03:14:34.405Z,58.90
2023-05-14T03:17:38.152Z,58.52
2023-05-14T03:20:42.170Z,58.68
2023-05-14T03:23:46.095Z,58.60
2023-05-14T03:26:51.324Z,59.37
2023-05-14T03:29:55.356Z,60.48
2023-05-14T03:32:59.426Z,59.57
2023-05-14T03:36:03.311Z,60.51
2023-05-14T03:39:07.531Z,60.20
2023-05-14T03:42:13.953Z,60.64
2023-05-14T03:45:17.685Z,60.97
2023-05-14T03:48:21.783Z,61.32
2023-05-14T03:51:25.635Z,61.37
2023-05-14T03:54:29.374Z,62.37
2023-05-14T03:57:34.730Z,61.15
2023-05-14T04:00:39.361Z,60.80
2023-05-14T04:03:43.309Z,60.23
2023-05-14T04:06:47.971Z,60.03
2023-05-14T04:09:52.264Z,59.82
2023-05-14T04:12:57.570Z,59.52
2023-05-14T04:16:07.131Z,60.72
2023-05-14T04:19:12.661Z,62.24
2023-05-14T04:22:16.524Z,61.64
2023-05-14T04:25:20.387Z,61.43
2023-05-14T04:28:25.575Z,61.22
2023-05-14T04:31:29.257Z,61.85
2023-05-14T04:34:32.960Z,61.17
2023-05-14T04:37:36.660Z,61.73
2023-05-14T04:40:40.473Z,61.52
2023-05-14T04:43:46.487Z,61.99
2023-05-14T04:46:50.189Z,61.71
2023-05-14T04:49:54.007Z,61.56
2023-05-14T04:52:57.696Z,61.93
2023-05-14T04:56:01.508Z,62.16
2023-05-14T04:59:06.857Z,61.77
2023-05-14T05:02:10.626Z,61.78
2023-05-14T05:05:14.685Z,61.78
2023-05-14T05:08:18.564Z,62.45
2023-05-14T05:11:22.530Z,62.62
2023-05-14T05:14:27.912Z,62.17
2023-05-14T05:17:32.041Z,61.83
2023-05-14T05:20:35.877Z,62.20
2023-05-14T05:23:39.954Z,61.40
2023-05-14T05:26:43.782Z,61.96
2023-05-14T05:29:49.294Z,62.16
2023-05-14T05:32:53.138Z,61.85
2023-05-14T05:35:57.030Z,61.62
2023-05-14T05:39:00.862Z,60.88
2023-05-14T05:42:05.821Z,60.87
2023-05-14T05:45:12.112Z,61.90
2023-05-14T05:48:16.012Z,61.59
2023-05-14T05:51:19.936Z,61.10
2023-05-14T05:54:25.401Z,60.82
2023-05-14T05:57:29.321Z,60.95
2023-05-14T06:00:34.723Z,61.04
2023-05-14T06:03:38.655Z,60.91
2023-05-14T06:06:42.755Z,61.23
2023-05-14T06:09:46.586Z,61.62
2023-05-14T06:12:50.419Z,61.19
2023-05-14T06:15:55.878Z,60.72
2023-05-14T06:18:59.745Z,60.75
2023-05-14T06:22:03.820Z,59.47
2023-05-14T06:25:08.638Z,59.66
2023-05-14T06:28:12.556Z,58.69
2023-05-14T06:31:18.090Z,59.39
2023-05-14T06:34:21.986Z,59.08
2023-05-14T06:37:25.873Z,60.88
2023-05-14T06:40:29.652Z,59.32
2023-05-14T06:43:33.523Z,59.97
2023-05-14T06:46:38.972Z,61.03
2023-05-14T06:49:42.889Z,61.50
2023-05-14T06:52:47.111Z,65.11
2023-05-14T06:55:51.226Z,64.68
2023-05-14T06:58:55.165Z,64.72
2023-05-14T07:02:00.594Z,67.57
2023-05-14T07:05:04.601Z,67.34
2023-05-14T07:08:08.669Z,68.12
2023-05-14T07:11:13.612Z,65.67
2023-05-14T07:14:17.608Z,66.76
2023-05-14T07:17:23.013Z,70.46
2023-05-14T07:20:27.441Z,69.99
2023-05-14T07:23:31.338Z,68.97
2023-05-14T07:26:36.796Z,70.77
2023-05-14T07:29:40.786Z,71.09
2023-05-14T07:32:46.343Z,70.28
2023-05-14T07:35:50.266Z,72.35
2023-05-14T07:38:54.287Z,73.50
2023-05-14T07:41:58.123Z,72.33
2023-05-14T07:45:02.031Z,72.49
2023-05-14T07:48:07.942Z,73.83
2023-05-14T07:51:12.230Z,75.09
2023-05-14T07:54:16.171Z,73.43
2023-05-14T07:57:20.096Z,75.26
2023-05-14T08:00:24.330Z,74.86
2023-05-14T08:03:29.925Z,76.06
2023-05-14T08:06:34.332Z,76.95
2023-05-14T08:09:38.182Z,76.05
2023-05-14T08:12:43.184Z,74.45
2023-05-14T08:15:47.443Z,73.81
2023-05-14T08:18:52.835Z,74.98
2023-05-14T08:21:56.852Z,75.71
2023-05-14T08:25:01.373Z,73.09
2023-05-14T08:28:05.406Z,76.30
2023-05-14T08:31:09.367Z,77.25
2023-05-14T08:34:14.851Z,74.07
2023-05-14T08:37:19.112Z,76.39
2023-05-14T08:40:23.373Z,78.86
2023-05-14T08:43:31.469Z,77.85
2023-05-14T08:46:37.877Z,78.30
2023-05-14T08:49:45.248Z,79.06
2023-05-14T08:52:49.329Z,79.16
2023-05-14T08:55:55.446Z,79.75
2023-05-14T08:58:59.502Z,81.08
2023-05-14T09:02:05.240Z,82.21
2023-05-14T09:05:11.537Z,80.76
2023-05-14T09:08:15.977Z,79.84
2023-05-14T09:11:19.808Z,81.67
2023-05-14T09:14:24.803Z,79.45
2023-05-14T09:17:28.910Z,80.48
2023-05-14T09:20:34.521Z,77.31
2023-05-14T09:23:44.554Z,77.68
2023-05-14T09:26:52.618Z,75.66
2023-05-14T09:29:56.588Z,77.69
2023-05-14T09:33:00.680Z,77.49
2023-05-14T09:36:06.285Z,77.21
2023-05-14T09:39:10.369Z,76.46
2023-05-14T09:42:14.211Z,75.82
2023-05-14T09:45:18.458Z,77.29
2023-05-14T09:48:23.296Z,78.04
2023-05-14T09:51:33.071Z,77.73
2023-05-14T09:54:37.702Z,76.75
2023-05-14T09:57:41.689Z,77.34
2023-05-14T10:00:47.210Z,76.56
2023-05-14T10:03:51.581Z,76.52
2023-05-14T10:06:57.732Z,76.78
2023-05-14T10:10:04.694Z,76.60
2023-05-14T10:13:14.966Z,80.46
2023-05-14T10:16:23.531Z,80.17
2023-05-14T10:19:29.701Z,78.28
2023-05-14T10:22:36.880Z,77.91
2023-05-14T10:25:41.560Z,79.44
2023-05-14T10:28:46.077Z,81.91
2023-05-14T10:31:54.100Z,78.84
2023-05-14T10:34:57.930Z,78.04
2023-05-14T10:38:03.281Z,78.74
2023-05-14T10:41:08.948Z,78.40
2023-05-14T10:44:13.591Z,77.62
2023-05-14T10:47:18.638Z,78.02
2023-05-14T10:50:24.143Z,76.71
2023-05-14T10:53:38.857Z,75.98
2023-05-14T10:56:45.560Z,76.34
2023-05-14T10:59:53.435Z,77.24
2023-05-14T11:02:58.695Z,76.09
2023-05-14T11:06:05.787Z,76.97
2023-05-14T11:09:11.330Z,76.81
2023-05-14T11:12:15.450Z,76.07
2023-05-14T11:15:20.525Z,75.92
2023-05-14T11:18:31.961Z,74.39
2023-05-14T11:21:35.869Z,76.25
2023-05-14T11:24:41.635Z,75.40
2023-05-14T11:27:47.079Z,72.85
2023-05-14T11:30:51.441Z,72.87
2023-05-14T11:33:55.381Z,74.10
2023-05-14T11:36:59.412Z,75.70
2023-05-14T11:40:05.301Z,76.03
2023-05-14T11:43:09.281Z,76.55
2023-05-14T11:46:19.175Z,77.43
2023-05-14T11:49:24.212Z,78.62
2023-05-14T11:52:28.025Z,77.35
2023-05-14T11:55:36.131Z,74.64
2023-05-14T11:58:39.974Z,75.31
2023-05-14T12:01:43.943Z,76.25
2023-05-14T12:04:53.701Z,74.91
2023-05-14T12:07:57.733Z,73.00
2023-05-14T12:11:03.364Z,75.79
2023-05-14T12:14:13.717Z,76.41
2023-05-14T12:17:19.395Z,75.20
2023-05-14T12:20:26.652Z,76.88
2023-05-14T12:23:32.033Z,76.72
2023-05-14T12:26:39.076Z,78.51
2023-05-14T12:29:45.131Z,76.68
2023-05-14T12:32:52.151Z,77.92
2023-05-14T12:36:02.489Z,77.67
2023-05-14T12:39:14.471Z,78.16
2023-05-14T12:42:19.832Z,78.29
2023-05-14T12:45:24.057Z,78.75
2023-05-14T12:48:28.189Z,78.47
2023-05-14T12:51:32.129Z,78.01
2023-05-14T12:54:36.033Z,80.38
2023-05-14T12:57:41.736Z,80.38
2023-05-14T13:00:45.654Z,81.54
2023-05-14T13:03:49.673Z,80.66
2023-05-14T13:06:53.890Z,80.53
2023-05-14T13:09:57.897Z,82.09
2023-05-14T13:13:03.390Z,83.09
2023-05-14T13:16:08.076Z,84.69
2023-05-14T13:19:12.076Z,84.16
2023-05-14T13:22:17.410Z,83.91
2023-05-14T13:25:21.495Z,83.67
2023-05-14T13:28:27.003Z,86.22
2023-05-14T13:31:30.986Z,89.46
2023-05-14T13:34:35.073Z,87.86
2023-05-14T13:37:39.140Z,86.01
2023-05-14T13:40:42.988Z,84.47
2023-05-14T13:43:48.378Z,84.51
2023-05-14T13:46:52.450Z,84.47
2023-05-14T13:49:56.757Z,83.65
2023-05-14T13:53:00.729Z,82.69
2023-05-14T13:56:06.748Z,82.81
2023-05-14T13:59:12.649Z,83.66
2023-05-14T14:02:16.683Z,84.28
2023-05-14T14:05:21.502Z,84.36
2023-05-14T14:08:25.503Z,83.40
2023-05-14T14:11:29.492Z,84.41
2023-05-14T14:14:34.952Z,84.21
2023-05-14T14:17:39.337Z,84.76
2023-05-14T14:20:43.274Z,82.44
2023-05-14T14:23:47.813Z,83.97
2023-05-14T14:26:51.726Z,84.27
2023-05-14T14:29:57.110Z,84.05
2023-05-14T14:33:01.588Z,85.66
2023-05-14T14:36:06.112Z,84.23
2023-05-14T14:39:09.959Z,85.40
2023-05-14T14:42:13.885Z,82.48
2023-05-14T14:45:19.474Z,81.99
2023-05-14T14:48:31.733Z,82.70
2023-05-14T14:51:35.783Z,82.94
2023-05-14T14:54:39.749Z,82.26
2023-05-14T14:57:43.652Z,82.76
2023-05-14T15:00:49.213Z,83.60
2023-05-14T15:03:53.218Z,83.58
2023-05-14T15:06:57.108Z,82.62
2023-05-14T15:10:01.113Z,84.83
2023-05-14T15:13:05.574Z,83.29
2023-05-14T15:16:11.574Z,82.78
2023-05-14T15:19:15.753Z,83.90
2023-05-14T15:22:19.726Z,82.76
2023-05-14T15:25:24.735Z,82.71
2023-05-14T15:28:29.042Z,82.79
2023-05-14T15:31:34.817Z,83.30
2023-05-14T15:34:38.993Z,83.86
2023-05-14T15:37:44.449Z,85.05
2023-05-14T15:40:48.954Z,88.50
2023-05-14T15:43:53.082Z,87.69
2023-05-14T15:46:58.406Z,88.02
2023-05-14T15:50:02.674Z,86.96
2023-05-14T15:53:06.591Z,87.55
2023-05-14T15:56:10.568Z,87.29
2023-05-14T15:59:16.843Z,89.15
2023-05-14T16:02:22.278Z,88.94
2023-05-14T16:05:26.306Z,89.89
2023-05-14T16:08:30.264Z,89.95
2023-05-14T16:11:34.247Z,90.01
2023-05-14T16:14:39.016Z,89.32
2023-05-14T16:17:45.996Z,89.55
2023-05-14T16:20:49.939Z,90.41
2023-05-14T16:23:53.872Z,92.03
2023-05-14T16:26:57.792Z,91.89
2023-05-14T16:30:01.708Z,93.26
2023-05-14T16:33:07.201Z,93.62
2023-05-14T16:36:11.389Z,93.53
2023-05-14T16:39:15.358Z,93.97
2023-05-14T16:42:19.324Z,92.32
2023-05-14T16:45:23.415Z,91.69
2023-05-14T16:48:29.733Z,92.92
2023-05-14T16:51:33.965Z,92.03
2023-05-14T16:54:37.914Z,92.70
2023-05-14T16:57:41.794Z,92.99
2023-05-14T17:00:45.791Z,91.86
2023-05-14T17:03:51.265Z,92.20
2023-05-14T17:06:55.086Z,93.57
2023-05-14T17:10:00.304Z,93.36
2023-05-14T17:13:06.137Z,95.27
2023-05-14T17:16:10.097Z,93.48
2023-05-14T17:19:15.636Z,92.52
2023-05-14T17:22:19.627Z,93.65
2023-05-14T17:25:24.268Z,92.54
2023-05-14T17:28:30.164Z,91.71
2023-05-14T17:31:34.047Z,93.04
2023-05-14T17:34:39.430Z,92.93
2023-05-14T17:37:43.580Z,92.02
2023-05-14T17:40:47.519Z,92.65
2023-05-14T17:43:52.733Z,93.61
2023-05-14T17:46:56.857Z,93.44
2023-05-14T17:50:02.325Z,94.10
2023-05-14T17:53:06.185Z,95.41
2023-05-14T17:56:10.279Z,96.84
2023-05-14T17:59:14.150Z,96.92
2023-05-14T18:02:18.043Z,96.71
2023-05-14T18:05:23.620Z,96.53
2023-05-14T18:08:27.617Z,94.93
2023-05-14T18:11:34.175Z,97.38
2023-05-14T18:14:38.124Z,94.50
2023-05-14T18:17:42.469Z,93.79
2023-05-14T18:20:47.816Z,96.45
2023-05-14T18:23:51.747Z,97.44
2023-05-14T18:26:56.314Z,98.41
2023-05-14T18:30:00.180Z,99.88
2023-05-14T18:33:04.249Z,99.01
2023-05-14T18:36:09.765Z,99.81
2023-05-14T18:39:13.681Z,98.89
2023-05-14T18:42:19.014Z,99.40
2023-05-14T18:45:24.398Z,99.62
2023-05-14T18:48:28.646Z,100.00
2023-05-14T18:51:34.036Z,100.00
2023-05-14T18:54:38.842Z,100.00
2023-05-14T18:57:43.037Z,100.00
2023-05-14T19:00:46.930Z,100.00
2023-05-14T19:03:51.052Z,100.00
2023-05-14T19:06:57.005Z,99.48
2023-05-14T19:10:01.004Z,99.05
2023-05-14T19:13:04.988Z,100.00
2023-05-14T19:16:09.110Z,100.00
2023-05-14T19:19:13.501Z,100.00
2023-05-14T19:22:19.805Z,100.00
2023-05-14T19:25:25.031Z,100.00
2023-05-14T19:28:29.214Z,100.00
2023-05-14T19:31:33.150Z,100.00
2023-05-14T19:34:37.155Z,100.00
2023-05-14T19:37:42.355Z,99.72
2023-05-14T19:40:46.248Z,98.35
2023-05-14T19:43:50.114Z,98.41
2023-05-14T19:46:54.296Z,99.38
2023-05-14T19:49:58.086Z,98.54
2023-05-14T19:53:04.432Z,98.92
2023-05-14T19:56:08.462Z,97.85
2023-05-14T19:59:12.446Z,99.44
2023-05-14T20:02:18.542Z,99.45
2023-05-14T20:05:22.834Z,98.17
2023-05-14T20:08:29.315Z,97.39
2023-05-14T20:11:33.271Z,97.95
2023-05-14T20:14:37.267Z,98.40
2023-05-14T20:17:41.611Z,99.09
2023-05-14T20:20:45.535Z,98.62
2023-05-14T20:23:50.847Z,97.34
2023-05-14T20:26:54.764Z,96.70
2023-05-14T20:29:58.662Z,96.85
2023-05-14T20:33:02.640Z,96.46
2023-05-14T20:36:06.856Z,95.17
2023-05-14T20:39:12.480Z,95.21
2023-05-14T20:42:16.247Z,94.72
2023-05-14T20:45:20.353Z,94.45
2023-05-14T20:48:24.196Z,95.02
2023-05-14T20:51:28.137Z,94.32
2023-05-14T20:54:33.475Z,93.22
2023-05-14T20:57:37.509Z,92.99
2023-05-14T21:00:41.613Z,92.52
2023-05-14T21:03:45.581Z,93.00
2023-05-14T21:06:49.557Z,92.63
2023-05-14T21:09:54.967Z,93.58
2023-05-14T21:12:58.883Z,92.49
2023-05-14T21:16:03.278Z,93.02
2023-05-14T21:19:07.432Z,95.39
2023-05-14T21:22:11.418Z,93.05
2023-05-14T21:25:16.946Z,91.08
2023-05-14T21:28:20.889Z,90.98
2023-05-14T21:31:24.766Z,90.02
2023-05-14T21:34:29.854Z,91.94
2023-05-14T21:37:35.661Z,93.27
2023-05-14T21:40:41.037Z,92.08
2023-05-14T21:43:45.445Z,91.66
2023-05-14T21:46:49.515Z,92.25
2023-05-14T21:49:53.240Z,91.60
2023-05-14T21:52:57.202Z,93.26
2023-05-14T21:56:02.487Z,94.36
2023-05-14T21:59:06.365Z,93.32
2023-05-14T22:02:10.251Z,92.27
2023-05-14T22:05:14.151Z,91.10
2023-05-14T22:08:18.421Z,92.30
2023-05-14T22:11:23.865Z,91.70
2023-05-14T22:14:28.047Z,93.74
2023-05-14T22:17:32.082Z,91.61
2023-05-14T22:20:35.961Z,93.64
2023-05-14T22:23:39.820Z,92.79
2023-05-14T22:26:45.324Z,92.36
2023-05-14T22:29:49.559Z,91.38
2023-05-14T22:32:54.480Z,93.34
2023-05-14T22:35:58.393Z,94.51
2023-05-14T22:39:02.339Z,95.04
2023-05-14T22:42:08.104Z,97.18
2023-05-14T22:45:12.470Z,94.27
2023-05-14T22:48:16.396Z,93.91
2023-05-14T22:51:20.308Z,92.94
2023-05-14T22:54:24.209Z,95.70
2023-05-14T22:57:29.620Z,94.33
2023-05-14T23:00:33.555Z,94.00
2023-05-14T23:03:37.430Z,93.41
2023-05-14T23:06:41.394Z,93.86
2023-05-14T23:09:45.306Z,93.64
2023-05-14T23:12:50.556Z,92.25
2023-05-14T23:15:54.529Z,92.18
2023-05-14T23:18:58.579Z,91.47
2023-05-14T23:22:02.621Z,91.98
2023-05-14T23:25:07.290Z,92.37
2023-05-14T23:28:12.855Z,92.21
2023-05-14T23:31:16.808Z,92.85
2023-05-14T23:34:22.354Z,93.11
2023-05-14T23:37:26.589Z,93.53
2023-05-14T23:40:30.398Z,93.69
2023-05-14T23:43:35.728Z,92.73
2023-05-14T23:46:39.739Z,91.94
2023-05-14T23:49:43.508Z,92.62
2023-05-14T23:52:47.327Z,93.96
2023-05-14T23:55:51.310Z,92.74
2023-05-14T23:58:57.049Z,91.79
